sensor_id;sensor_type;location;lat;lon;timestamp;temperature;humidity
7472;DHT22;3777;48.722;8.110;2022-08-25T00:01:37;21.40;99.90
7472;DHT22;3777;48.722;8.110;2022-08-25T00:04:07;21.50;99.90
7472;DHT22;3777;48.722;8.110;2022-08-25T00:06:35;21.80;99.90
7472;DHT22;3777;48.722;8.110;2022-08-25T00:09:02;21.90;99.90
7472;DHT22;3777;48.722;8.110;2022-08-25T00:11:32;21.80;99.90
7472;DHT22;3777;48.722;8.110;2022-08-25T00:14:04;21.70;99.90
7472;DHT22;3777;48.722;8.110;2022-08-25T00:16:31;21.60;99.90
7472;DHT22;3777;48.722;8.110;2022-08-25T00:19:00;21.50;99.90
7472;DHT22;3777;48.722;8.110;2022-08-25T00:21:28;21.50;99.90
7472;DHT22;3777;48.722;8.110;2022-08-25T00:23:56;21.50;99.90
7472;DHT22;3777;48.722;8.110;2022-08-25T00:26:24;21.40;99.90
7472;DHT22;3777;48.722;8.110;2022-08-25T00:28:52;21.40;99.90
7472;DHT22;3777;48.722;8.110;2022-08-25T00:31:21;21.30;99.90
7472;DHT22;3777;48.722;8.110;2022-08-25T00:33:49;21.20;99.90
7472;DHT22;3777;48.722;8.110;2022-08-25T00:36:17;21.20;99.90
7472;DHT22;3777;48.722;8.110;2022-08-25T00:38:46;21.10;99.90
7472;DHT22;3777;48.722;8.110;2022-08-25T00:41:17;21.10;99.90
7472;DHT22;3777;48.722;8.110;2022-08-25T00:43:47;21.00;99.90
7472;DHT22;3777;48.722;8.110;2022-08-25T00:46:17;20.90;99.90
7472;DHT22;3777;48.722;8.110;2022-08-25T00:48:49;20.80;99.90
7472;DHT22;3777;48.722;8.110;2022-08-25T00:51:20;20.90;99.90
7472;DHT22;3777;48.722;8.110;2022-08-25T00:53:49;21.10;99.90
7472;DHT22;3777;48.722;8.110;2022-08-25T00:56:16;21.10;99.90
7472;DHT22;3777;48.722;8.110;2022-08-25T00:58:44;21.00;99.90
7472;DHT22;3777;48.722;8.110;2022-08-25T01:01:11;21.00;99.90
7472;DHT22;3777;48.722;8.110;2022-08-25T01:03:38;20.90;99.90
7472;DHT22;3777;48.722;8.110;2022-08-25T01:06:07;20.90;99.90
7472;DHT22;3777;48.722;8.110;2022-08-25T01:08:37;20.80;99.90
7472;DHT22;3777;48.722;8.110;2022-08-25T01:11:06;20.70;99.90
7472;DHT22;3777;48.722;8.110;2022-08-25T01:13:37;20.50;99.90
7472;DHT22;3777;48.722;8.110;2022-08-25T01:16:05;20.60;99.90
7472;DHT22;3777;48.722;8.110;2022-08-25T01:18:46;20.80;99.90
7472;DHT22;3777;48.722;8.110;2022-08-25T01:21:16;21.10;99.90
7472;DHT22;3777;48.722;8.110;2022-08-25T01:23:44;21.20;99.90
7472;DHT22;3777;48.722;8.110;2022-08-25T01:26:13;21.20;99.90
7472;DHT22;3777;48.722;8.110;2022-08-25T01:28:41;21.30;99.90
7472;DHT22;3777;48.722;8.110;2022-08-25T01:31:29;21.40;99.90
7472;DHT22;3777;48.722;8.110;2022-08-25T01:33:57;21.30;99.90
7472;DHT22;3777;48.722;8.110;2022-08-25T01:36:27;21.50;99.90
7472;DHT22;3777;48.722;8.110;2022-08-25T01:38:54;21.50;99.90
7472;DHT22;3777;48.722;8.110;2022-08-25T01:41:29;21.30;99.90
7472;DHT22;3777;48.722;8.110;2022-08-25T01:43:57;21.20;99.90
7472;DHT22;3777;48.722;8.110;2022-08-25T01:46:24;21.30;99.90
7472;DHT22;3777;48.722;8.110;2022-08-25T01:48:51;21.10;99.90
7472;DHT22;3777;48.722;8.110;2022-08-25T01:51:20;21.00;99.90
7472;DHT22;3777;48.722;8.110;2022-08-25T01:53:50;20.90;99.90
7472;DHT22;3777;48.722;8.110;2022-08-25T01:56:17;20.80;99.90
7472;DHT22;3777;48.722;8.110;2022-08-25T01:58:47;20.70;99.90
7472;DHT22;3777;48.722;8.110;2022-08-25T02:01:17;20.70;99.90
7472;DHT22;3777;48.722;8.110;2022-08-25T02:03:47;20.90;99.90
7472;DHT22;3777;48.722;8.110;2022-08-25T02:06:16;20.80;99.90
7472;DHT22;3777;48.722;8.110;2022-08-25T02:08:44;20.80;99.90
7472;DHT22;3777;48.722;8.110;2022-08-25T02:11:13;20.90;99.90
7472;DHT22;3777;48.722;8.110;2022-08-25T02:13:41;20.90;99.90
7472;DHT22;3777;48.722;8.110;2022-08-25T02:16:09;21.00;99.90
7472;DHT22;3777;48.722;8.110;2022-08-25T02:18:40;21.20;99.90
7472;DHT22;3777;48.722;8.110;2022-08-25T02:21:07;21.20;99.90
7472;DHT22;3777;48.722;8.110;2022-08-25T02:23:35;21.20;99.90
7472;DHT22;3777;48.722;8.110;2022-08-25T02:26:03;21.00;99.90
7472;DHT22;3777;48.722;8.110;2022-08-25T02:28:31;20.80;99.90
7472;DHT22;3777;48.722;8.110;2022-08-25T02:30:58;20.70;99.90
7472;DHT22;3777;48.722;8.110;2022-08-25T02:33:25;20.50;99.90
7472;DHT22;3777;48.722;8.110;2022-08-25T02:35:56;20.50;99.90
7472;DHT22;3777;48.722;8.110;2022-08-25T02:38:23;20.50;99.90
7472;DHT22;3777;48.722;8.110;2022-08-25T02:40:52;20.60;99.90
7472;DHT22;3777;48.722;8.110;2022-08-25T02:43:19;20.60;99.90
7472;DHT22;3777;48.722;8.110;2022-08-25T02:45:48;20.50;99.90
7472;DHT22;3777;48.722;8.110;2022-08-25T02:48:15;20.60;99.90
7472;DHT22;3777;48.722;8.110;2022-08-25T02:50:45;20.80;99.90
7472;DHT22;3777;48.722;8.110;2022-08-25T02:53:12;20.90;99.90
7472;DHT22;3777;48.722;8.110;2022-08-25T02:55:39;20.90;99.90
7472;DHT22;3777;48.722;8.110;2022-08-25T02:58:06;21.00;99.90
7472;DHT22;3777;48.722;8.110;2022-08-25T03:00:35;20.80;99.90
7472;DHT22;3777;48.722;8.110;2022-08-25T03:03:04;20.80;99.90
7472;DHT22;3777;48.722;8.110;2022-08-25T03:05:31;20.60;99.90
7472;DHT22;3777;48.722;8.110;2022-08-25T03:07:58;20.50;99.90
7472;DHT22;3777;48.722;8.110;2022-08-25T03:10:26;20.50;99.90
7472;DHT22;3777;48.722;8.110;2022-08-25T03:12:53;20.50;99.90
7472;DHT22;3777;48.722;8.110;2022-08-25T03:15:20;20.70;99.90
7472;DHT22;3777;48.722;8.110;2022-08-25T03:17:48;20.90;99.90
7472;DHT22;3777;48.722;8.110;2022-08-25T03:20:17;21.10;99.90
7472;DHT22;3777;48.722;8.110;2022-08-25T03:22:45;21.10;99.90
7472;DHT22;3777;48.722;8.110;2022-08-25T03:25:12;21.00;99.90
7472;DHT22;3777;48.722;8.110;2022-08-25T03:27:56;20.80;99.90
7472;DHT22;3777;48.722;8.110;2022-08-25T03:30:23;20.60;99.90
7472;DHT22;3777;48.722;8.110;2022-08-25T03:32:50;20.60;99.90
7472;DHT22;3777;48.722;8.110;2022-08-25T03:35:19;20.40;99.90
7472;DHT22;3777;48.722;8.110;2022-08-25T03:37:46;20.40;99.90
7472;DHT22;3777;48.722;8.110;2022-08-25T03:40:14;20.30;99.90
7472;DHT22;3777;48.722;8.110;2022-08-25T03:42:43;20.30;99.90
7472;DHT22;3777;48.722;8.110;2022-08-25T03:45:11;20.20;99.90
7472;DHT22;3777;48.722;8.110;2022-08-25T03:47:39;20.10;99.90
7472;DHT22;3777;48.722;8.110;2022-08-25T03:50:09;20.10;99.90
7472;DHT22;3777;48.722;8.110;2022-08-25T03:52:37;20.00;99.90
7472;DHT22;3777;48.722;8.110;2022-08-25T03:55:08;20.00;99.90
7472;DHT22;3777;48.722;8.110;2022-08-25T03:57:35;19.90;99.90
7472;DHT22;3777;48.722;8.110;2022-08-25T04:00:04;19.90;99.90
7472;DHT22;3777;48.722;8.110;2022-08-25T04:02:32;19.80;99.90
7472;DHT22;3777;48.722;8.110;2022-08-25T04:04:59;19.70;99.90
7472;DHT22;3777;48.722;8.110;2022-08-25T04:07:26;19.60;99.90
7472;DHT22;3777;48.722;8.110;2022-08-25T04:09:55;19.60;99.90
7472;DHT22;3777;48.722;8.110;2022-08-25T04:12:22;19.50;99.90
7472;DHT22;3777;48.722;8.110;2022-08-25T04:14:50;19.50;99.90
7472;DHT22;3777;48.722;8.110;2022-08-25T04:17:17;19.40;99.90
7472;DHT22;3777;48.722;8.110;2022-08-25T04:19:45;19.30;99.90
7472;DHT22;3777;48.722;8.110;2022-08-25T04:22:11;19.30;99.90
7472;DHT22;3777;48.722;8.110;2022-08-25T04:24:38;19.20;99.90
7472;DHT22;3777;48.722;8.110;2022-08-25T04:27:07;19.10;99.90
7472;DHT22;3777;48.722;8.110;2022-08-25T04:29:34;19.10;99.90
7472;DHT22;3777;48.722;8.110;2022-08-25T04:32:01;19.00;99.90
7472;DHT22;3777;48.722;8.110;2022-08-25T04:34:28;19.10;99.90
7472;DHT22;3777;48.722;8.110;2022-08-25T04:36:56;19.00;99.90
7472;DHT22;3777;48.722;8.110;2022-08-25T04:39:23;19.00;99.90
7472;DHT22;3777;48.722;8.110;2022-08-25T04:41:50;19.00;99.90
7472;DHT22;3777;48.722;8.110;2022-08-25T04:44:19;19.00;99.90
7472;DHT22;3777;48.722;8.110;2022-08-25T04:46:46;18.90;99.90
7472;DHT22;3777;48.722;8.110;2022-08-25T04:49:14;18.90;99.90
7472;DHT22;3777;48.722;8.110;2022-08-25T04:51:41;19.00;99.90
7472;DHT22;3777;48.722;8.110;2022-08-25T04:54:11;19.00;99.90
7472;DHT22;3777;48.722;8.110;2022-08-25T04:56:42;19.00;99.90
7472;DHT22;3777;48.722;8.110;2022-08-25T04:59:12;19.00;99.90
7472;DHT22;3777;48.722;8.110;2022-08-25T05:01:41;19.10;99.90
7472;DHT22;3777;48.722;8.110;2022-08-25T05:04:12;19.10;99.90
7472;DHT22;3777;48.722;8.110;2022-08-25T05:06:39;19.10;99.90
7472;DHT22;3777;48.722;8.110;2022-08-25T05:09:07;19.10;99.90
7472;DHT22;3777;48.722;8.110;2022-08-25T05:11:34;19.10;99.90
7472;DHT22;3777;48.722;8.110;2022-08-25T05:14:01;19.10;99.90
7472;DHT22;3777;48.722;8.110;2022-08-25T05:16:29;19.10;99.90
7472;DHT22;3777;48.722;8.110;2022-08-25T05:18:57;19.20;99.90
7472;DHT22;3777;48.722;8.110;2022-08-25T05:21:26;19.30;99.90
7472;DHT22;3777;48.722;8.110;2022-08-25T05:23:54;19.30;99.90
7472;DHT22;3777;48.722;8.110;2022-08-25T05:26:23;19.40;99.90
7472;DHT22;3777;48.722;8.110;2022-08-25T05:28:52;19.30;99.90
7472;DHT22;3777;48.722;8.110;2022-08-25T05:31:21;19.40;99.90
7472;DHT22;3777;48.722;8.110;2022-08-25T05:33:48;19.40;99.90
7472;DHT22;3777;48.722;8.110;2022-08-25T05:36:18;19.50;99.90
7472;DHT22;3777;48.722;8.110;2022-08-25T05:38:45;19.70;99.90
7472;DHT22;3777;48.722;8.110;2022-08-25T05:41:15;19.80;99.90
7472;DHT22;3777;48.722;8.110;2022-08-25T05:43:43;19.90;99.90
7472;DHT22;3777;48.722;8.110;2022-08-25T05:46:13;20.00;99.90
7472;DHT22;3777;48.722;8.110;2022-08-25T05:48:41;20.20;99.90
7472;DHT22;3777;48.722;8.110;2022-08-25T05:51:10;20.30;99.90
7472;DHT22;3777;48.722;8.110;2022-08-25T05:53:40;20.40;99.90
7472;DHT22;3777;48.722;8.110;2022-08-25T05:56:08;20.40;99.90
7472;DHT22;3777;48.722;8.110;2022-08-25T05:58:37;20.50;99.90
7472;DHT22;3777;48.722;8.110;2022-08-25T06:01:05;20.70;99.90
7472;DHT22;3777;48.722;8.110;2022-08-25T06:03:46;20.90;99.90
7472;DHT22;3777;48.722;8.110;2022-08-25T06:06:13;21.00;99.90
7472;DHT22;3777;48.722;8.110;2022-08-25T06:08:42;21.30;99.90
7472;DHT22;3777;48.722;8.110;2022-08-25T06:11:09;21.60;99.90
7472;DHT22;3777;48.722;8.110;2022-08-25T06:13:37;21.90;99.90
7472;DHT22;3777;48.722;8.110;2022-08-25T06:16:04;22.30;99.90
7472;DHT22;3777;48.722;8.110;2022-08-25T06:18:31;22.70;99.90
7472;DHT22;3777;48.722;8.110;2022-08-25T06:20:58;23.20;99.90
7472;DHT22;3777;48.722;8.110;2022-08-25T06:23:32;23.70;99.90
7472;DHT22;3777;48.722;8.110;2022-08-25T06:26:00;24.00;99.90
7472;DHT22;3777;48.722;8.110;2022-08-25T06:28:28;24.30;99.90
7472;DHT22;3777;48.722;8.110;2022-08-25T06:30:57;24.50;99.90
7472;DHT22;3777;48.722;8.110;2022-08-25T06:33:24;24.60;99.90
7472;DHT22;3777;48.722;8.110;2022-08-25T06:35:53;24.60;99.90
7472;DHT22;3777;48.722;8.110;2022-08-25T06:38:20;24.60;99.90
7472;DHT22;3777;48.722;8.110;2022-08-25T06:40:48;24.60;99.90
7472;DHT22;3777;48.722;8.110;2022-08-25T06:43:18;24.40;99.90
7472;DHT22;3777;48.722;8.110;2022-08-25T06:45:45;24.40;99.90
7472;DHT22;3777;48.722;8.110;2022-08-25T06:48:13;24.40;99.90
7472;DHT22;3777;48.722;8.110;2022-08-25T06:50:41;24.40;99.90
7472;DHT22;3777;48.722;8.110;2022-08-25T06:53:08;24.40;99.90
7472;DHT22;3777;48.722;8.110;2022-08-25T06:55:35;24.50;99.90
7472;DHT22;3777;48.722;8.110;2022-08-25T06:58:02;24.60;99.90
7472;DHT22;3777;48.722;8.110;2022-08-25T07:00:31;24.70;99.90
7472;DHT22;3777;48.722;8.110;2022-08-25T07:02:59;24.70;99.90
7472;DHT22;3777;48.722;8.110;2022-08-25T07:05:26;24.80;99.90
7472;DHT22;3777;48.722;8.110;2022-08-25T07:07:54;24.90;99.90
7472;DHT22;3777;48.722;8.110;2022-08-25T07:10:21;25.00;99.90
7472;DHT22;3777;48.722;8.110;2022-08-25T07:12:48;25.10;99.90
7472;DHT22;3777;48.722;8.110;2022-08-25T07:15:16;25.30;99.90
7472;DHT22;3777;48.722;8.110;2022-08-25T07:17:44;25.40;99.90
7472;DHT22;3777;48.722;8.110;2022-08-25T07:20:11;25.60;99.90
7472;DHT22;3777;48.722;8.110;2022-08-25T07:22:39;25.60;99.90
7472;DHT22;3777;48.722;8.110;2022-08-25T07:25:07;25.80;99.90
7472;DHT22;3777;48.722;8.110;2022-08-25T07:27:34;25.90;99.90
7472;DHT22;3777;48.722;8.110;2022-08-25T07:30:02;26.00;99.90
7472;DHT22;3777;48.722;8.110;2022-08-25T07:32:29;26.10;99.90
7472;DHT22;3777;48.722;8.110;2022-08-25T07:34:57;26.30;99.90
7472;DHT22;3777;48.722;8.110;2022-08-25T07:37:52;26.30;99.90
7472;DHT22;3777;48.722;8.110;2022-08-25T07:40:22;26.50;99.90
7472;DHT22;3777;48.722;8.110;2022-08-25T07:42:52;26.50;99.90
7472;DHT22;3777;48.722;8.110;2022-08-25T07:45:20;26.60;99.90
7472;DHT22;3777;48.722;8.110;2022-08-25T07:47:50;26.80;99.90
7472;DHT22;3777;48.722;8.110;2022-08-25T07:50:20;26.80;99.90
7472;DHT22;3777;48.722;8.110;2022-08-25T07:52:47;26.90;99.90
7472;DHT22;3777;48.722;8.110;2022-08-25T07:55:14;27.10;99.90
7472;DHT22;3777;48.722;8.110;2022-08-25T07:57:41;27.10;99.90
7472;DHT22;3777;48.722;8.110;2022-08-25T08:00:11;27.20;99.90
7472;DHT22;3777;48.722;8.110;2022-08-25T08:02:39;27.30;99.90
7472;DHT22;3777;48.722;8.110;2022-08-25T08:05:08;27.40;99.90
7472;DHT22;3777;48.722;8.110;2022-08-25T08:07:37;27.50;99.90
7472;DHT22;3777;48.722;8.110;2022-08-25T08:10:06;27.70;99.90
7472;DHT22;3777;48.722;8.110;2022-08-25T08:12:34;27.70;99.90
7472;DHT22;3777;48.722;8.110;2022-08-25T08:15:02;27.70;99.90
7472;DHT22;3777;48.722;8.110;2022-08-25T08:17:29;27.90;99.90
7472;DHT22;3777;48.722;8.110;2022-08-25T08:19:57;28.00;99.90
7472;DHT22;3777;48.722;8.110;2022-08-25T08:22:24;28.10;99.90
7472;DHT22;3777;48.722;8.110;2022-08-25T08:24:52;28.20;99.90
7472;DHT22;3777;48.722;8.110;2022-08-25T08:27:20;28.30;99.90
7472;DHT22;3777;48.722;8.110;2022-08-25T08:29:47;28.50;99.90
7472;DHT22;3777;48.722;8.110;2022-08-25T08:32:14;28.80;99.90
7472;DHT22;3777;48.722;8.110;2022-08-25T08:34:42;28.90;99.90
7472;DHT22;3777;48.722;8.110;2022-08-25T08:37:10;29.00;99.90
7472;DHT22;3777;48.722;8.110;2022-08-25T08:39:37;29.10;99.90
7472;DHT22;3777;48.722;8.110;2022-08-25T08:42:32;29.20;99.90
7472;DHT22;3777;48.722;8.110;2022-08-25T08:45:15;29.40;99.90
7472;DHT22;3777;48.722;8.110;2022-08-25T08:50:44;29.70;99.60
7472;DHT22;3777;48.722;8.110;2022-08-25T08:53:18;29.80;98.80
7472;DHT22;3777;48.722;8.110;2022-08-25T08:55:49;29.90;98.10
7472;DHT22;3777;48.722;8.110;2022-08-25T08:58:22;30.00;97.50
7472;DHT22;3777;48.722;8.110;2022-08-25T09:00:51;30.20;97.70
7472;DHT22;3777;48.722;8.110;2022-08-25T09:03:28;30.40;96.70
7472;DHT22;3777;48.722;8.110;2022-08-25T09:06:01;30.70;95.40
7472;DHT22;3777;48.722;8.110;2022-08-25T09:08:29;31.00;95.30
7472;DHT22;3777;48.722;8.110;2022-08-25T09:11:01;31.20;94.90
7472;DHT22;3777;48.722;8.110;2022-08-25T09:13:41;31.40;94.60
7472;DHT22;3777;48.722;8.110;2022-08-25T09:16:21;31.60;92.60
7472;DHT22;3777;48.722;8.110;2022-08-25T09:19:16;31.80;91.00
7472;DHT22;3777;48.722;8.110;2022-08-25T09:21:51;32.00;90.60
7472;DHT22;3777;48.722;8.110;2022-08-25T09:24:42;32.20;89.70
7472;DHT22;3777;48.722;8.110;2022-08-25T09:27:22;32.50;84.90
7472;DHT22;3777;48.722;8.110;2022-08-25T09:29:59;32.80;85.00
7472;DHT22;3777;48.722;8.110;2022-08-25T09:32:27;33.10;82.20
7472;DHT22;3777;48.722;8.110;2022-08-25T09:34:56;33.50;80.30
7472;DHT22;3777;48.722;8.110;2022-08-25T09:37:23;34.00;75.80
7472;DHT22;3777;48.722;8.110;2022-08-25T09:39:51;34.50;73.90
7472;DHT22;3777;48.722;8.110;2022-08-25T09:42:19;34.90;71.30
7472;DHT22;3777;48.722;8.110;2022-08-25T09:44:47;35.60;69.70
7472;DHT22;3777;48.722;8.110;2022-08-25T09:47:21;36.20;66.60
7472;DHT22;3777;48.722;8.110;2022-08-25T09:49:50;37.40;62.90
7472;DHT22;3777;48.722;8.110;2022-08-25T09:52:32;38.30;57.20
7472;DHT22;3777;48.722;8.110;2022-08-25T09:55:16;39.10;54.80
7472;DHT22;3777;48.722;8.110;2022-08-25T09:57:49;39.80;50.60
7472;DHT22;3777;48.722;8.110;2022-08-25T10:00:20;40.30;48.20
7472;DHT22;3777;48.722;8.110;2022-08-25T10:03:04;41.00;46.20
7472;DHT22;3777;48.722;8.110;2022-08-25T10:05:34;41.00;45.40
7472;DHT22;3777;48.722;8.110;2022-08-25T10:08:10;41.80;44.30
7472;DHT22;3777;48.722;8.110;2022-08-25T10:10:45;42.40;41.80
7472;DHT22;3777;48.722;8.110;2022-08-25T10:13:20;42.90;40.80
7472;DHT22;3777;48.722;8.110;2022-08-25T10:16:02;43.10;40.40
7472;DHT22;3777;48.722;8.110;2022-08-25T10:18:31;43.60;38.50
7472;DHT22;3777;48.722;8.110;2022-08-25T10:21:04;44.10;37.30
7472;DHT22;3777;48.722;8.110;2022-08-25T10:23:33;43.60;36.10
7472;DHT22;3777;48.722;8.110;2022-08-25T10:26:06;43.60;36.60
7472;DHT22;3777;48.722;8.110;2022-08-25T10:28:41;44.10;36.20
7472;DHT22;3777;48.722;8.110;2022-08-25T10:31:15;44.50;35.40
7472;DHT22;3777;48.722;8.110;2022-08-25T10:33:57;45.30;34.10
7472;DHT22;3777;48.722;8.110;2022-08-25T10:36:42;45.80;34.00
7472;DHT22;3777;48.722;8.110;2022-08-25T10:39:27;46.00;32.50
7472;DHT22;3777;48.722;8.110;2022-08-25T10:42:02;46.20;30.80
7472;DHT22;3777;48.722;8.110;2022-08-25T10:44:38;45.60;30.00
7472;DHT22;3777;48.722;8.110;2022-08-25T10:47:39;45.80;30.60
7472;DHT22;3777;48.722;8.110;2022-08-25T10:50:26;46.50;29.70
7472;DHT22;3777;48.722;8.110;2022-08-25T10:53:14;46.90;29.30
7472;DHT22;3777;48.722;8.110;2022-08-25T10:55:50;46.80;28.70
7472;DHT22;3777;48.722;8.110;2022-08-25T10:58:25;46.50;29.40
7472;DHT22;3777;48.722;8.110;2022-08-25T11:01:00;46.50;28.40
7472;DHT22;3777;48.722;8.110;2022-08-25T11:03:41;46.90;28.10
7472;DHT22;3777;48.722;8.110;2022-08-25T11:06:16;47.10;28.40
7472;DHT22;3777;48.722;8.110;2022-08-25T11:08:46;46.60;28.70
7472;DHT22;3777;48.722;8.110;2022-08-25T11:11:23;45.10;28.80
7472;DHT22;3777;48.722;8.110;2022-08-25T11:13:55;41.50;30.80
7472;DHT22;3777;48.722;8.110;2022-08-25T11:16:31;40.40;34.10
7472;DHT22;3777;48.722;8.110;2022-08-25T11:19:06;39.60;35.40
7472;DHT22;3777;48.722;8.110;2022-08-25T11:21:41;39.00;37.10
7472;DHT22;3777;48.722;8.110;2022-08-25T11:24:36;38.20;36.40
7472;DHT22;3777;48.722;8.110;2022-08-25T11:27:11;37.60;37.20
7472;DHT22;3777;48.722;8.110;2022-08-25T11:29:50;37.20;39.20
7472;DHT22;3777;48.722;8.110;2022-08-25T11:32:20;37.10;39.40
7472;DHT22;3777;48.722;8.110;2022-08-25T11:34:49;36.90;39.30
7472;DHT22;3777;48.722;8.110;2022-08-25T11:37:23;36.70;38.30
7472;DHT22;3777;48.722;8.110;2022-08-25T11:40:18;36.60;39.90
7472;DHT22;3777;48.722;8.110;2022-08-25T11:42:58;36.40;38.40
7472;DHT22;3777;48.722;8.110;2022-08-25T11:45:42;36.00;37.80
7472;DHT22;3777;48.722;8.110;2022-08-25T11:48:19;35.50;38.00
7472;DHT22;3777;48.722;8.110;2022-08-25T11:51:00;35.10;38.70
7472;DHT22;3777;48.722;8.110;2022-08-25T11:53:31;34.70;39.10
7472;DHT22;3777;48.722;8.110;2022-08-25T11:56:01;34.40;40.40
7472;DHT22;3777;48.722;8.110;2022-08-25T11:58:40;34.20;40.50
7472;DHT22;3777;48.722;8.110;2022-08-25T12:01:11;34.00;40.70
7472;DHT22;3777;48.722;8.110;2022-08-25T12:04:10;34.00;41.50
7472;DHT22;3777;48.722;8.110;2022-08-25T12:07:17;33.70;40.90
7472;DHT22;3777;48.722;8.110;2022-08-25T12:13:00;33.50;41.30
7472;DHT22;3777;48.722;8.110;2022-08-25T12:15:33;33.30;41.90
7472;DHT22;3777;48.722;8.110;2022-08-25T12:18:09;33.30;42.90
7472;DHT22;3777;48.722;8.110;2022-08-25T12:21:12;33.10;42.00
7472;DHT22;3777;48.722;8.110;2022-08-25T12:23:43;32.90;42.60
7472;DHT22;3777;48.722;8.110;2022-08-25T12:26:17;32.90;42.60
7472;DHT22;3777;48.722;8.110;2022-08-25T12:28:56;32.80;42.90
7472;DHT22;3777;48.722;8.110;2022-08-25T12:31:40;32.70;42.60
7472;DHT22;3777;48.722;8.110;2022-08-25T12:34:28;32.50;45.10
7472;DHT22;3777;48.722;8.110;2022-08-25T12:37:01;32.60;44.90
7472;DHT22;3777;48.722;8.110;2022-08-25T12:39:33;32.70;43.40
7472;DHT22;3777;48.722;8.110;2022-08-25T12:42:03;32.50;43.60
7472;DHT22;3777;48.722;8.110;2022-08-25T12:44:40;32.50;44.30
7472;DHT22;3777;48.722;8.110;2022-08-25T12:47:26;32.50;45.10
7472;DHT22;3777;48.722;8.110;2022-08-25T12:50:34;32.50;45.90
7472;DHT22;3777;48.722;8.110;2022-08-25T12:53:09;32.60;44.80
7472;DHT22;3777;48.722;8.110;2022-08-25T12:55:43;32.60;44.20
7472;DHT22;3777;48.722;8.110;2022-08-25T12:58:12;32.60;45.80
7472;DHT22;3777;48.722;8.110;2022-08-25T13:00:55;32.70;44.20
7472;DHT22;3777;48.722;8.110;2022-08-25T13:03:45;32.70;44.80
7472;DHT22;3777;48.722;8.110;2022-08-25T13:06:36;32.70;45.20
7472;DHT22;3777;48.722;8.110;2022-08-25T13:09:29;32.70;45.10
7472;DHT22;3777;48.722;8.110;2022-08-25T13:12:08;32.60;45.30
7472;DHT22;3777;48.722;8.110;2022-08-25T13:14:38;32.60;45.80
7472;DHT22;3777;48.722;8.110;2022-08-25T13:17:06;32.60;45.40
7472;DHT22;3777;48.722;8.110;2022-08-25T13:19:34;32.70;45.30
7472;DHT22;3777;48.722;8.110;2022-08-25T13:22:12;32.70;45.30
7472;DHT22;3777;48.722;8.110;2022-08-25T13:24:41;32.70;45.90
7472;DHT22;3777;48.722;8.110;2022-08-25T13:27:23;32.70;45.70
7472;DHT22;3777;48.722;8.110;2022-08-25T13:29:53;32.70;46.50
7472;DHT22;3777;48.722;8.110;2022-08-25T13:32:27;32.70;45.90
7472;DHT22;3777;48.722;8.110;2022-08-25T13:35:07;32.70;45.50
7472;DHT22;3777;48.722;8.110;2022-08-25T13:37:36;32.70;45.50
7472;DHT22;3777;48.722;8.110;2022-08-25T13:40:11;32.80;45.10
7472;DHT22;3777;48.722;8.110;2022-08-25T13:42:44;32.70;45.10
7472;DHT22;3777;48.722;8.110;2022-08-25T13:45:14;32.60;45.30
7472;DHT22;3777;48.722;8.110;2022-08-25T13:47:42;32.60;45.00
7472;DHT22;3777;48.722;8.110;2022-08-25T13:50:26;32.60;45.40
7472;DHT22;3777;48.722;8.110;2022-08-25T13:52:56;32.60;45.30
7472;DHT22;3777;48.722;8.110;2022-08-25T13:55:25;32.60;45.60
7472;DHT22;3777;48.722;8.110;2022-08-25T13:57:56;32.60;46.10
7472;DHT22;3777;48.722;8.110;2022-08-25T14:00:30;32.60;45.90
7472;DHT22;3777;48.722;8.110;2022-08-25T14:02:58;32.60;45.60
7472;DHT22;3777;48.722;8.110;2022-08-25T14:05:33;32.50;46.50
7472;DHT22;3777;48.722;8.110;2022-08-25T14:08:01;32.40;45.80
7472;DHT22;3777;48.722;8.110;2022-08-25T14:10:46;32.40;46.10
7472;DHT22;3777;48.722;8.110;2022-08-25T14:13:28;32.40;46.00
7472;DHT22;3777;48.722;8.110;2022-08-25T14:16:06;32.30;45.80
7472;DHT22;3777;48.722;8.110;2022-08-25T14:18:34;32.20;46.90
7472;DHT22;3777;48.722;8.110;2022-08-25T14:21:08;32.30;47.10
7472;DHT22;3777;48.722;8.110;2022-08-25T14:23:36;32.40;47.20
7472;DHT22;3777;48.722;8.110;2022-08-25T14:26:04;32.40;46.40
7472;DHT22;3777;48.722;8.110;2022-08-25T14:28:32;32.40;46.40
7472;DHT22;3777;48.722;8.110;2022-08-25T14:31:03;32.40;46.60
7472;DHT22;3777;48.722;8.110;2022-08-25T14:33:36;32.30;46.30
7472;DHT22;3777;48.722;8.110;2022-08-25T14:36:04;32.40;46.60
7472;DHT22;3777;48.722;8.110;2022-08-25T14:38:32;32.30;46.10
7472;DHT22;3777;48.722;8.110;2022-08-25T14:40:59;32.30;47.60
7472;DHT22;3777;48.722;8.110;2022-08-25T14:43:27;32.40;47.00
7472;DHT22;3777;48.722;8.110;2022-08-25T14:45:55;32.40;46.50
7472;DHT22;3777;48.722;8.110;2022-08-25T14:48:25;32.40;47.00
7472;DHT22;3777;48.722;8.110;2022-08-25T14:50:56;32.40;47.20
7472;DHT22;3777;48.722;8.110;2022-08-25T14:53:24;32.50;47.30
7472;DHT22;3777;48.722;8.110;2022-08-25T14:55:52;32.50;46.50
7472;DHT22;3777;48.722;8.110;2022-08-25T14:58:19;32.50;47.10
7472;DHT22;3777;48.722;8.110;2022-08-25T15:00:47;32.50;47.60
7472;DHT22;3777;48.722;8.110;2022-08-25T15:03:17;32.50;46.90
7472;DHT22;3777;48.722;8.110;2022-08-25T15:05:46;32.50;46.50
7472;DHT22;3777;48.722;8.110;2022-08-25T15:08:13;32.50;47.10
7472;DHT22;3777;48.722;8.110;2022-08-25T15:10:57;32.50;46.30
7472;DHT22;3777;48.722;8.110;2022-08-25T15:13:24;32.50;47.00
7472;DHT22;3777;48.722;8.110;2022-08-25T15:15:52;32.40;46.80
7472;DHT22;3777;48.722;8.110;2022-08-25T15:18:21;32.40;46.60
7472;DHT22;3777;48.722;8.110;2022-08-25T15:20:48;32.30;46.20
7472;DHT22;3777;48.722;8.110;2022-08-25T15:23:16;32.30;45.80
7472;DHT22;3777;48.722;8.110;2022-08-25T15:25:44;32.30;46.10
7472;DHT22;3777;48.722;8.110;2022-08-25T15:28:12;32.30;46.90
7472;DHT22;3777;48.722;8.110;2022-08-25T15:30:39;32.20;46.60
7472;DHT22;3777;48.722;8.110;2022-08-25T15:33:06;32.20;46.90
7472;DHT22;3777;48.722;8.110;2022-08-25T15:35:35;32.10;47.60
7472;DHT22;3777;48.722;8.110;2022-08-25T15:38:01;32.10;47.30
7472;DHT22;3777;48.722;8.110;2022-08-25T15:40:29;32.10;47.20
7472;DHT22;3777;48.722;8.110;2022-08-25T15:42:56;32.10;47.50
7472;DHT22;3777;48.722;8.110;2022-08-25T15:45:23;32.10;47.70
7472;DHT22;3777;48.722;8.110;2022-08-25T15:47:50;32.10;48.10
7472;DHT22;3777;48.722;8.110;2022-08-25T15:50:19;32.10;47.20
7472;DHT22;3777;48.722;8.110;2022-08-25T15:52:49;32.10;47.00
7472;DHT22;3777;48.722;8.110;2022-08-25T15:55:16;32.00;46.90
7472;DHT22;3777;48.722;8.110;2022-08-25T15:57:43;32.00;47.10
7472;DHT22;3777;48.722;8.110;2022-08-25T16:00:11;32.00;46.70
7472;DHT22;3777;48.722;8.110;2022-08-25T16:02:38;32.00;48.20
7472;DHT22;3777;48.722;8.110;2022-08-25T16:05:06;31.90;48.60
7472;DHT22;3777;48.722;8.110;2022-08-25T16:07:35;31.90;47.20
7472;DHT22;3777;48.722;8.110;2022-08-25T16:10:04;31.90;47.60
7472;DHT22;3777;48.722;8.110;2022-08-25T16:12:31;31.80;47.50
7472;DHT22;3777;48.722;8.110;2022-08-25T16:14:58;31.80;47.30
7472;DHT22;3777;48.722;8.110;2022-08-25T16:17:25;31.80;47.90
7472;DHT22;3777;48.722;8.110;2022-08-25T16:19:52;31.80;47.80
7472;DHT22;3777;48.722;8.110;2022-08-25T16:22:19;31.80;47.80
7472;DHT22;3777;48.722;8.110;2022-08-25T16:24:46;31.80;47.60
7472;DHT22;3777;48.722;8.110;2022-08-25T16:27:15;31.70;47.70
7472;DHT22;3777;48.722;8.110;2022-08-25T16:29:43;31.70;48.10
7472;DHT22;3777;48.722;8.110;2022-08-25T16:32:11;31.60;48.30
7472;DHT22;3777;48.722;8.110;2022-08-25T16:34:39;31.60;48.00